createdAt,value
2019-05-05T00:00:48.405Z,13.00
2019-05-05T00:03:19.591Z,13.30
2019-05-05T00:05:50.109Z,13.40
2019-05-05T00:08:19.774Z,13.70
2019-05-05T00:11:06.176Z,13.80
2019-05-05T00:13:44.804Z,13.90
2019-05-05T00:16:21.786Z,14.00
2019-05-05T00:18:54.289Z,14.10
2019-05-05T00:21:36.613Z,14.20
2019-05-05T00:24:06.262Z,14.20
2019-05-05T00:26:35.865Z,14.20
2019-05-05T00:29:05.370Z,14.30
2019-05-05T00:31:35.195Z,14.30
2019-05-05T00:34:05.186Z,14.10
2019-05-05T00:36:55.191Z,13.90
2019-05-05T00:39:25.600Z,13.90
2019-05-05T00:41:55.583Z,14.10
2019-05-05T00:44:25.146Z,14.10
2019-05-05T00:46:56.192Z,14.20
2019-05-05T00:49:28.340Z,14.20
2019-05-05T00:51:58.002Z,14.10
2019-05-05T00:54:27.877Z,14.10
2019-05-05T00:56:57.782Z,14.10
2019-05-05T00:59:31.511Z,14.10
2019-05-05T01:02:11.619Z,14.10
2019-05-05T01:04:55.171Z,14.00
2019-05-05T01:07:24.781Z,13.90
2019-05-05T01:09:54.586Z,13.90
2019-05-05T01:12:24.470Z,13.60
2019-05-05T01:14:55.266Z,13.50
2019-05-05T01:17:25.438Z,13.70
2019-05-05T01:20:03.711Z,13.80
2019-05-05T01:22:26.347Z,13.70
2019-05-05T01:25:08.151Z,13.60
2019-05-05T01:27:37.772Z,13.60
2019-05-05T01:30:15.162Z,13.20
2019-05-05T01:32:46.613Z,13.10
2019-05-05T01:35:16.172Z,13.00
2019-05-05T01:37:54.795Z,13.00
2019-05-05T01:40:26.101Z,13.00
2019-05-05T01:42:55.755Z,13.00
2019-05-05T01:45:25.365Z,13.10
2019-05-05T01:47:54.999Z,13.20
2019-05-05T01:50:24.920Z,13.20
2019-05-05T01:52:55.560Z,13.40
2019-05-05T01:55:25.769Z,13.50
2019-05-05T01:57:55.318Z,13.60
2019-05-05T02:00:25.341Z,13.60
2019-05-05T02:02:55.541Z,13.50
2019-05-05T02:05:25.102Z,13.50
2019-05-05T02:07:55.280Z,13.50
2019-05-05T02:10:26.310Z,13.40
2019-05-05T02:12:55.833Z,13.50
2019-05-05T02:15:25.468Z,13.40
2019-05-05T02:17:55.173Z,13.50
2019-05-05T02:20:40.011Z,13.50
2019-05-05T02:23:11.020Z,13.50
2019-05-05T02:25:41.071Z,13.50
2019-05-05T02:28:10.615Z,13.40
2019-05-05T02:30:57.543Z,13.50
2019-05-05T02:33:27.230Z,13.50
2019-05-05T02:35:56.850Z,13.40
2019-05-05T02:38:26.508Z,13.30
2019-05-05T02:40:57.079Z,13.30
2019-05-05T02:43:27.942Z,13.30
2019-05-05T02:46:06.896Z,13.40
2019-05-05T02:48:37.856Z,13.30
2019-05-05T02:51:07.915Z,13.30
2019-05-05T02:53:44.515Z,13.30
2019-05-05T02:56:18.455Z,13.30
2019-05-05T02:58:49.294Z,13.30
2019-05-05T03:01:24.457Z,13.20
2019-05-05T03:03:55.260Z,13.20
2019-05-05T03:06:24.832Z,13.20
2019-05-05T03:08:56.255Z,13.20
2019-05-05T03:11:28.328Z,13.10
2019-05-05T03:14:01.300Z,13.00
2019-05-05T03:16:34.162Z,13.00
2019-05-05T03:19:04.621Z,12.80
2019-05-05T03:21:34.384Z,12.70
2019-05-05T03:24:04.331Z,12.70
2019-05-05T03:26:34.489Z,12.60
2019-05-05T03:29:24.315Z,12.40
2019-05-05T03:31:56.322Z,12.30
2019-05-05T03:34:25.825Z,12.20
2019-05-05T03:36:56.351Z,12.30
2019-05-05T03:39:28.267Z,12.10
2019-05-05T03:42:03.623Z,12.20
2019-05-05T03:44:38.019Z,12.20
2019-05-05T03:47:07.680Z,12.20
2019-05-05T03:49:38.092Z,12.20
2019-05-05T03:52:07.689Z,12.20
2019-05-05T03:54:38.026Z,12.20
2019-05-05T03:57:08.533Z,12.20
2019-05-05T03:59:40.427Z,12.20
2019-05-05T04:02:20.626Z,12.30
2019-05-05T04:04:51.914Z,12.30
2019-05-05T04:07:34.022Z,12.30
2019-05-05T04:10:04.910Z,12.40
2019-05-05T04:12:35.049Z,12.30
2019-05-05T04:15:06.269Z,12.50
2019-05-05T04:17:40.261Z,12.50
2019-05-05T04:23:14.803Z,12.70
2019-05-05T04:25:44.432Z,12.70
2019-05-05T04:28:34.560Z,12.70
2019-05-05T04:31:04.452Z,12.70
2019-05-05T04:33:34.203Z,12.80
2019-05-05T04:36:04.001Z,13.00
2019-05-05T04:38:34.815Z,13.00
2019-05-05T04:41:04.804Z,13.10
2019-05-05T04:43:54.743Z,13.10
2019-05-05T04:46:24.611Z,13.10
2019-05-05T04:49:09.023Z,13.10
2019-05-05T04:51:47.678Z,13.10
2019-05-05T04:54:33.980Z,13.20
2019-05-05T04:57:04.813Z,13.20
2019-05-05T04:59:34.430Z,13.20
2019-05-05T05:02:05.827Z,13.20
2019-05-05T05:04:36.987Z,13.30
2019-05-05T05:07:07.758Z,13.30
2019-05-05T05:09:37.167Z,13.30
2019-05-05T05:12:26.073Z,13.40
2019-05-05T05:14:55.495Z,13.40
2019-05-05T05:17:26.518Z,13.40
2019-05-05T05:19:56.097Z,13.30
2019-05-05T05:22:25.591Z,13.30
2019-05-05T05:24:55.206Z,13.20
2019-05-05T05:27:24.740Z,13.20
2019-05-05T05:29:55.339Z,13.20
2019-05-05T05:32:24.866Z,13.30
2019-05-05T05:34:54.425Z,13.30
2019-05-05T05:37:24.270Z,13.20
2019-05-05T05:39:58.407Z,13.30
2019-05-05T05:42:27.892Z,13.00
2019-05-05T05:45:27.511Z,12.20
2019-05-05T05:47:58.690Z,12.10
2019-05-05T05:50:44.208Z,11.80
2019-05-05T05:53:13.958Z,11.70
2019-05-05T05:55:44.762Z,12.20
2019-05-05T05:58:14.502Z,12.40
2019-05-05T06:00:44.360Z,12.40
2019-05-05T06:03:14.282Z,12.40
2019-05-05T06:05:43.999Z,12.40
2019-05-05T06:08:26.147Z,12.40
2019-05-05T06:10:55.689Z,12.50
2019-05-05T06:13:25.374Z,12.30
2019-05-05T06:15:54.934Z,12.30
2019-05-05T06:18:24.611Z,12.30
2019-05-05T06:20:54.223Z,11.90
2019-05-05T06:23:24.160Z,11.50
2019-05-05T06:25:55.109Z,11.70
2019-05-05T06:28:25.047Z,11.70
2019-05-05T06:30:54.784Z,11.60
2019-05-05T06:33:24.605Z,11.50
2019-05-05T06:35:54.136Z,11.60
2019-05-05T06:38:24.223Z,11.80
2019-05-05T06:40:58.218Z,11.70
2019-05-05T06:43:34.651Z,11.90
2019-05-05T06:46:05.132Z,11.90
2019-05-05T06:48:34.732Z,11.80
2019-05-05T06:51:04.425Z,11.90
2019-05-05T06:53:34.292Z,11.70
2019-05-05T06:56:05.129Z,11.50
2019-05-05T06:58:34.799Z,11.30
2019-05-05T07:01:04.888Z,11.50
2019-05-05T07:03:34.331Z,11.70
2019-05-05T07:06:04.408Z,11.50
2019-05-05T07:08:34.724Z,11.60
2019-05-05T07:11:04.416Z,11.80
2019-05-05T07:13:34.088Z,11.90
2019-05-05T07:16:04.853Z,11.80
2019-05-05T07:18:54.150Z,11.70
2019-05-05T07:21:25.266Z,11.80
2019-05-05T07:23:54.773Z,11.70
2019-05-05T07:26:24.232Z,11.70
2019-05-05T07:28:54.256Z,11.70
2019-05-05T07:31:24.168Z,11.60
2019-05-05T07:33:54.463Z,11.50
2019-05-05T07:36:37.973Z,11.30
2019-05-05T07:39:08.693Z,11.20
2019-05-05T07:41:40.517Z,11.20
2019-05-05T07:44:22.687Z,11.20
2019-05-05T07:46:40.621Z,11.40
2019-05-05T07:49:10.269Z,11.70
2019-05-05T07:51:59.188Z,11.50
2019-05-05T07:54:28.624Z,11.70
2019-05-05T07:56:58.219Z,12.00
2019-05-05T07:59:27.739Z,11.90
2019-05-05T08:01:57.273Z,11.80
2019-05-05T08:04:26.837Z,11.50
2019-05-05T08:06:56.310Z,11.40
2019-05-05T08:09:25.880Z,11.60
2019-05-05T08:11:55.482Z,12.00
2019-05-05T08:14:25.037Z,12.30
2019-05-05T08:17:03.769Z,12.50
2019-05-05T08:19:34.978Z,12.70
2019-05-05T08:22:04.615Z,12.90
2019-05-05T08:24:54.396Z,12.90
2019-05-05T08:27:44.670Z,12.90
2019-05-05T08:30:17.554Z,13.00
2019-05-05T08:32:48.885Z,13.20
2019-05-05T08:35:18.480Z,13.30
2019-05-05T08:37:48.126Z,13.50
2019-05-05T08:40:18.825Z,13.50
2019-05-05T08:42:48.464Z,13.60
2019-05-05T08:45:17.904Z,13.70
2019-05-05T08:47:47.396Z,13.60
2019-05-05T08:50:17.043Z,13.50
2019-05-05T08:52:46.617Z,13.60
2019-05-05T08:55:16.110Z,13.70
2019-05-05T08:57:45.751Z,14.00
2019-05-05T09:00:15.776Z,14.00
2019-05-05T09:02:45.250Z,14.00
2019-05-05T09:05:15.191Z,14.10
2019-05-05T09:07:44.554Z,14.10
2019-05-05T09:10:14.351Z,14.20
2019-05-05T09:12:44.057Z,14.10
2019-05-05T09:15:14.294Z,14.10
2019-05-05T09:17:44.154Z,14.20
2019-05-05T09:20:14.426Z,14.30
2019-05-05T09:22:44.595Z,14.60
2019-05-05T09:25:16.184Z,14.80
2019-05-05T09:27:53.621Z,14.80
2019-05-05T09:30:39.585Z,14.80
2019-05-05T09:33:10.314Z,14.80
2019-05-05T09:35:40.050Z,14.70
2019-05-05T09:38:10.209Z,14.60
2019-05-05T09:40:43.818Z,14.70
2019-05-05T09:43:14.822Z,14.70
2019-05-05T09:45:44.429Z,14.80
2019-05-05T09:48:15.269Z,14.80
2019-05-05T09:50:45.002Z,14.90
2019-05-05T09:53:14.756Z,14.70
2019-05-05T09:55:44.537Z,14.60
2019-05-05T09:58:14.302Z,14.70
2019-05-05T10:00:45.571Z,14.80
2019-05-05T10:03:16.413Z,15.00
2019-05-05T10:05:49.136Z,15.10
2019-05-05T10:08:18.774Z,15.10
2019-05-05T10:10:49.558Z,15.10
2019-05-05T10:13:19.263Z,15.10
2019-05-05T10:15:49.045Z,15.10
2019-05-05T10:18:18.590Z,15.50
2019-05-05T10:20:48.208Z,15.60
2019-05-05T10:23:17.762Z,15.70
2019-05-05T10:25:48.982Z,15.80
2019-05-05T10:28:18.588Z,15.90
2019-05-05T10:30:49.395Z,15.90
2019-05-05T10:33:19.054Z,16.00
2019-05-05T10:35:48.665Z,16.00
2019-05-05T10:38:18.164Z,15.90
2019-05-05T10:40:48.440Z,15.90
2019-05-05T10:43:18.184Z,15.90
2019-05-05T10:45:47.609Z,15.80
2019-05-05T10:48:17.161Z,15.70
2019-05-05T10:50:46.637Z,15.70
2019-05-05T10:53:16.252Z,15.60
2019-05-05T10:55:45.881Z,15.60
2019-05-05T10:58:15.500Z,15.40
2019-05-05T11:00:48.546Z,15.40
2019-05-05T11:03:18.103Z,15.30
2019-05-05T11:05:49.250Z,15.40
2019-05-05T11:08:18.884Z,15.50
2019-05-05T11:10:48.429Z,15.40
2019-05-05T11:13:17.989Z,15.30
2019-05-05T11:15:47.704Z,15.30
2019-05-05T11:18:17.214Z,15.40
2019-05-05T11:20:46.773Z,15.40
2019-05-05T11:23:16.237Z,15.30
2019-05-05T11:25:45.658Z,15.30
2019-05-05T11:28:15.277Z,15.30
2019-05-05T11:30:47.389Z,15.30
2019-05-05T11:33:23.747Z,15.10
2019-05-05T11:36:01.293Z,14.90
2019-05-05T11:38:30.896Z,14.90
2019-05-05T11:41:00.451Z,14.90
2019-05-05T11:43:29.922Z,14.80
2019-05-05T11:45:59.619Z,14.80
2019-05-05T11:48:29.178Z,14.80
2019-05-05T11:50:58.853Z,14.70
2019-05-05T11:53:28.479Z,14.80
2019-05-05T11:55:58.237Z,14.70
2019-05-05T11:58:27.733Z,14.70
2019-05-05T12:00:57.373Z,14.60
2019-05-05T12:03:27.003Z,14.60
2019-05-05T12:05:56.653Z,14.60
2019-05-05T12:08:26.218Z,14.50
2019-05-05T12:10:57.463Z,14.50
2019-05-05T12:13:27.131Z,14.50
2019-05-05T12:15:58.427Z,14.60
2019-05-05T12:18:35.474Z,14.60
2019-05-05T12:21:05.537Z,14.40
2019-05-05T12:23:36.841Z,14.50
2019-05-05T12:26:20.220Z,14.50
2019-05-05T12:28:51.483Z,14.50
2019-05-05T12:31:24.740Z,14.40
2019-05-05T12:33:57.603Z,14.40
2019-05-05T12:36:30.853Z,14.50
2019-05-05T12:39:03.738Z,14.40
2019-05-05T12:41:35.025Z,14.50
2019-05-05T12:44:06.008Z,14.40
2019-05-05T12:46:37.271Z,14.30
2019-05-05T12:49:08.465Z,14.20
2019-05-05T12:51:38.247Z,14.30
2019-05-05T12:54:07.894Z,14.30
2019-05-05T12:56:38.722Z,14.30
2019-05-05T12:59:09.901Z,14.20
2019-05-05T13:01:51.573Z,14.30
2019-05-05T13:04:21.078Z,14.30
2019-05-05T13:06:50.653Z,14.20
2019-05-05T13:09:21.007Z,14.30
2019-05-05T13:11:50.388Z,14.30
2019-05-05T13:14:20.034Z,14.40
2019-05-05T13:16:53.056Z,14.40
2019-05-05T13:19:28.651Z,14.30
2019-05-05T13:22:14.966Z,14.30
2019-05-05T13:24:46.226Z,14.30
2019-05-05T13:27:19.530Z,14.30
2019-05-05T13:29:49.064Z,14.30
2019-05-05T13:32:18.690Z,14.30
2019-05-05T13:34:48.198Z,14.20
2019-05-05T13:37:17.681Z,14.20
2019-05-05T13:39:47.378Z,14.20
2019-05-05T13:42:16.924Z,14.10
2019-05-05T13:45:01.272Z,14.00
2019-05-05T13:47:34.256Z,14.00
2019-05-05T13:50:09.845Z,14.20
2019-05-05T13:52:39.509Z,14.20
2019-05-05T13:55:09.298Z,14.20
2019-05-05T13:57:39.015Z,14.20
2019-05-05T14:00:14.092Z,14.10
2019-05-05T14:02:44.144Z,14.10
2019-05-05T14:05:14.616Z,14.10
2019-05-05T14:07:44.524Z,13.70
2019-05-05T14:10:15.296Z,13.40
2019-05-05T14:12:45.932Z,13.30
2019-05-05T14:15:17.167Z,13.30
2019-05-05T14:17:47.361Z,13.10
2019-05-05T14:20:17.734Z,13.00
2019-05-05T14:22:54.347Z,13.00
2019-05-05T14:25:27.317Z,12.90
2019-05-05T14:27:56.906Z,13.00
2019-05-05T14:30:28.458Z,12.80
2019-05-05T14:32:58.961Z,12.60
2019-05-05T14:35:38.987Z,12.60
2019-05-05T14:38:14.607Z,12.40
2019-05-05T14:40:44.568Z,12.20
2019-05-05T14:43:16.784Z,12.30
2019-05-05T14:45:46.960Z,12.40
2019-05-05T14:48:17.906Z,12.60
2019-05-05T14:50:48.351Z,12.70
2019-05-05T14:53:20.889Z,12.50
2019-05-05T14:55:51.112Z,12.40
2019-05-05T14:58:20.688Z,11.70
2019-05-05T15:00:50.286Z,11.90
2019-05-05T15:03:19.978Z,11.90
2019-05-05T15:05:51.158Z,11.80
2019-05-05T15:08:25.277Z,11.70
2019-05-05T15:11:08.456Z,11.70
2019-05-05T15:13:38.157Z,11.40
2019-05-05T15:16:10.125Z,11.10
2019-05-05T15:18:38.962Z,11.00
2019-05-05T15:21:08.384Z,10.80
2019-05-05T15:23:37.866Z,11.00
2019-05-05T15:26:08.157Z,11.10
2019-05-05T15:28:37.850Z,11.00
2019-05-05T15:31:07.379Z,10.60
2019-05-05T15:33:36.941Z,10.30
2019-05-05T15:36:06.701Z,10.70
2019-05-05T15:38:37.324Z,10.90
2019-05-05T15:41:06.880Z,11.20
2019-05-05T15:43:36.465Z,11.40
2019-05-05T15:46:06.051Z,11.40
2019-05-05T15:48:35.672Z,11.20
2019-05-05T15:51:05.334Z,11.10
2019-05-05T15:53:34.935Z,11.10
2019-05-05T15:56:04.613Z,11.30
2019-05-05T15:58:35.350Z,11.40
2019-05-05T16:01:04.861Z,11.50
2019-05-05T16:03:35.646Z,11.60
2019-05-05T16:06:05.205Z,11.40
2019-05-05T16:08:34.751Z,11.50
2019-05-05T16:11:04.707Z,11.70
2019-05-05T16:13:35.321Z,11.50
2019-05-05T16:16:23.656Z,11.60
2019-05-05T16:19:05.593Z,11.70
2019-05-05T16:21:45.651Z,11.70
2019-05-05T16:24:19.446Z,11.80
2019-05-05T16:26:49.107Z,11.90
2019-05-05T16:29:18.620Z,11.80
2019-05-05T16:31:48.252Z,11.70
2019-05-05T16:34:17.737Z,11.80
2019-05-05T16:36:47.280Z,11.70
2019-05-05T16:39:16.907Z,11.70
2019-05-05T16:41:46.448Z,11.60
2019-05-05T16:44:16.083Z,11.60
2019-05-05T16:46:45.740Z,11.50
2019-05-05T16:49:15.243Z,11.50
2019-05-05T16:51:54.402Z,11.50
2019-05-05T16:54:25.105Z,11.60
2019-05-05T16:56:54.603Z,11.50
2019-05-05T16:59:25.314Z,11.40
2019-05-05T17:01:55.114Z,11.60
2019-05-05T17:04:24.656Z,11.60
2019-05-05T17:06:54.702Z,11.70
2019-05-05T17:09:24.548Z,11.70
2019-05-05T17:12:09.129Z,11.60
2019-05-05T17:14:41.129Z,11.70
2019-05-05T17:17:15.338Z,11.80
2019-05-05T17:19:46.450Z,11.70
2019-05-05T17:22:19.427Z,11.70
2019-05-05T17:24:48.977Z,11.70
2019-05-05T17:27:18.698Z,11.70
2019-05-05T17:29:48.172Z,11.60
2019-05-05T17:32:17.595Z,11.60
2019-05-05T17:34:47.156Z,11.60
2019-05-05T17:37:16.663Z,11.80
2019-05-05T17:39:54.588Z,11.90
2019-05-05T17:42:51.073Z,11.90
2019-05-05T17:45:25.931Z,11.90
2019-05-05T17:47:57.278Z,11.90
2019-05-05T17:50:28.598Z,11.90
2019-05-05T17:53:02.439Z,11.80
2019-05-05T17:55:33.806Z,11.90
2019-05-05T17:58:05.258Z,11.80
2019-05-05T18:00:36.401Z,11.80
2019-05-05T18:03:07.434Z,11.80
2019-05-05T18:05:54.467Z,11.80
2019-05-05T18:08:37.913Z,11.80
2019-05-05T18:11:25.452Z,11.80
2019-05-05T18:14:08.503Z,11.70
2019-05-05T18:16:38.006Z,11.80
2019-05-05T18:19:07.399Z,11.70
2019-05-05T18:21:36.925Z,11.70
2019-05-05T18:24:06.495Z,11.80
2019-05-05T18:26:35.982Z,11.70
2019-05-05T18:29:05.612Z,11.70
2019-05-05T18:31:35.220Z,11.60
2019-05-05T18:34:04.895Z,11.60
2019-05-05T18:36:34.503Z,11.60
2019-05-05T18:39:07.609Z,11.50
2019-05-05T18:41:40.477Z,11.50
2019-05-05T18:44:20.571Z,11.50
2019-05-05T18:47:10.714Z,11.60
2019-05-05T18:49:41.431Z,11.50
2019-05-05T18:52:11.062Z,11.50
2019-05-05T18:54:40.510Z,11.50
2019-05-05T18:57:10.064Z,11.60
2019-05-05T18:59:39.678Z,11.50
2019-05-05T19:02:16.922Z,11.40
2019-05-05T19:05:04.812Z,11.60
2019-05-05T19:07:53.065Z,11.70
2019-05-05T19:10:11.709Z,11.70
2019-05-05T19:12:41.401Z,11.60
2019-05-05T19:15:13.495Z,11.60
2019-05-05T19:17:42.732Z,11.50
2019-05-05T19:20:19.682Z,11.50
2019-05-05T19:22:50.878Z,11.60
2019-05-05T19:25:20.495Z,11.60
2019-05-05T19:27:50.091Z,11.60
2019-05-05T19:30:19.694Z,11.50
2019-05-05T19:32:49.486Z,11.40
2019-05-05T19:35:19.048Z,11.40
2019-05-05T19:37:48.596Z,11.40
2019-05-05T19:40:18.709Z,11.40
2019-05-05T19:42:48.378Z,11.50
2019-05-05T19:45:18.124Z,11.50
2019-05-05T19:47:47.819Z,11.60
2019-05-05T19:50:24.259Z,11.60
2019-05-05T19:52:53.905Z,11.60
2019-05-05T19:55:23.564Z,11.50
2019-05-05T19:57:54.036Z,11.50
2019-05-05T20:00:26.311Z,11.50
2019-05-05T20:03:04.582Z,11.40
2019-05-05T20:05:35.142Z,11.40
2019-05-05T20:08:04.761Z,11.30
2019-05-05T20:10:34.297Z,11.30
2019-05-05T20:13:05.057Z,11.40
2019-05-05T20:15:39.787Z,11.50
2019-05-05T20:18:09.437Z,11.50
2019-05-05T20:20:39.052Z,11.50
2019-05-05T20:23:08.577Z,11.40
2019-05-05T20:25:38.624Z,11.40
2019-05-05T20:28:09.328Z,11.10
2019-05-05T20:30:38.974Z,11.10
2019-05-05T20:33:16.169Z,11.20
2019-05-05T20:35:47.436Z,11.30
2019-05-05T20:38:21.009Z,11.20
2019-05-05T20:41:07.562Z,11.10
2019-05-05T20:43:37.108Z,11.00
2019-05-05T20:46:06.772Z,11.10
2019-05-05T20:48:36.334Z,11.10
2019-05-05T20:51:05.940Z,11.20
2019-05-05T20:53:35.363Z,11.30
2019-05-05T20:56:04.987Z,11.30
2019-05-05T20:58:34.612Z,11.30
2019-05-05T21:01:04.812Z,11.20
2019-05-05T21:03:34.856Z,11.30
2019-05-05T21:06:04.704Z,11.30
2019-05-05T21:08:34.782Z,11.30
2019-05-05T21:11:05.679Z,11.30
2019-05-05T21:13:35.195Z,11.30
2019-05-05T21:16:04.828Z,11.30
2019-05-05T21:18:34.799Z,11.20
2019-05-05T21:21:05.961Z,11.10
2019-05-05T21:23:38.260Z,11.10
2019-05-05T21:26:09.432Z,11.00
2019-05-05T21:28:39.626Z,10.90
2019-05-05T21:31:09.195Z,11.00
2019-05-05T21:33:38.738Z,11.00
2019-05-05T21:36:08.243Z,11.10
2019-05-05T21:38:37.578Z,11.00
2019-05-05T21:41:07.134Z,11.10
2019-05-05T21:43:36.623Z,11.10
2019-05-05T21:46:06.104Z,10.80
2019-05-05T21:48:35.678Z,10.70
2019-05-05T21:51:15.680Z,10.80
2019-05-05T21:53:46.744Z,10.90
2019-05-05T21:56:30.027Z,11.00
2019-05-05T21:58:59.557Z,10.90
2019-05-05T22:01:29.925Z,11.00
2019-05-05T22:03:59.552Z,10.90
2019-05-05T22:06:29.129Z,10.80
2019-05-05T22:08:58.683Z,10.80
2019-05-05T22:11:28.266Z,10.70
2019-05-05T22:14:20.086Z,10.80
2019-05-05T22:16:49.593Z,10.80
2019-05-05T22:19:20.597Z,10.70
2019-05-05T22:21:51.681Z,10.70
2019-05-05T22:24:22.893Z,10.70
2019-05-05T22:26:54.228Z,10.70
2019-05-05T22:29:24.844Z,10.60
2019-05-05T22:31:54.833Z,10.40
2019-05-05T22:34:24.377Z,10.40
2019-05-05T22:36:54.022Z,10.50
2019-05-05T22:39:24.341Z,10.40
2019-05-05T22:41:54.405Z,10.50
2019-05-05T22:44:24.404Z,10.50
2019-05-05T22:46:54.363Z,10.60
2019-05-05T22:49:24.294Z,10.60
2019-05-05T22:51:54.214Z,10.40
2019-05-05T22:54:24.175Z,10.50
2019-05-05T22:56:54.069Z,10.50
2019-05-05T22:59:26.130Z,10.60
2019-05-05T23:01:54.927Z,10.60
2019-05-05T23:04:28.933Z,10.50
2019-05-05T23:07:00.054Z,10.50
2019-05-05T23:09:29.604Z,10.40
2019-05-05T23:11:59.154Z,10.40
2019-05-05T23:14:29.671Z,10.30
2019-05-05T23:17:05.268Z,10.40
2019-05-05T23:19:39.401Z,10.50
2019-05-05T23:22:16.378Z,10.60
2019-05-05T23:24:54.448Z,10.50
2019-05-05T23:27:43.905Z,10.50
2019-05-05T23:30:15.694Z,10.40
2019-05-05T23:32:45.155Z,10.20
2019-05-05T23:35:14.822Z,10.40
2019-05-05T23:37:45.592Z,10.20
2019-05-05T23:40:24.621Z,10.20
2019-05-05T23:42:54.426Z,10.40
2019-05-05T23:45:24.845Z,10.50
2019-05-05T23:47:55.125Z,10.60
2019-05-05T23:50:25.257Z,10.60
2019-05-05T23:52:54.888Z,10.70
2019-05-05T23:55:25.506Z,10.70
2019-05-05T23:57:55.381Z,10.70
